createdAt,value
2018-06-17T00:00:03.205Z,66.32
2018-06-17T00:05:03.043Z,64.5
2018-06-17T00:10:03.714Z,63.26
2018-06-17T00:15:03.285Z,60.29
2018-06-17T00:20:02.862Z,60.38
2018-06-17T00:25:03.491Z,59.05
2018-06-17T00:30:03.078Z,60.55
2018-06-17T00:35:03.649Z,60.06
2018-06-17T00:40:03.276Z,57.48
2018-06-17T00:45:02.881Z,57.1
2018-06-17T00:50:03.485Z,57.48
2018-06-17T00:55:03.103Z,55
2018-06-17T01:00:03.697Z,55.1
2018-06-17T01:05:03.302Z,54.04
2018-06-17T01:10:02.935Z,53.66
2018-06-17T01:15:03.544Z,53.25
2018-06-17T01:20:03.110Z,52.87
2018-06-17T01:25:03.733Z,52.89
2018-06-17T01:30:03.301Z,52.29
2018-06-17T01:35:02.905Z,50.95
2018-06-17T01:40:03.523Z,52.39
2018-06-17T01:45:03.090Z,52.77
2018-06-17T01:50:03.718Z,54.3
2018-06-17T01:55:03.285Z,55.16
2018-06-17T02:00:02.939Z,58.22
2018-06-17T02:05:03.560Z,59.47
2018-06-17T02:10:03.188Z,62.08
2018-06-17T02:15:03.774Z,62.65
2018-06-17T02:20:03.405Z,64.37
2018-06-17T02:25:02.995Z,68.68
2018-06-17T02:30:03.609Z,70.4
2018-06-17T02:35:03.171Z,71.83
2018-06-17T02:40:03.777Z,71.73
2018-06-17T02:45:03.432Z,73.27
2018-06-17T02:50:03.114Z,73.94
2018-06-17T02:55:03.685Z,74.13
2018-06-17T03:00:03.361Z,74.04
2018-06-17T03:05:02.994Z,73.94
2018-06-17T03:10:03.655Z,73.75
2018-06-17T03:15:03.243Z,73.27
2018-06-17T03:20:02.863Z,72.12
2018-06-17T03:25:03.487Z,72.12
2018-06-17T03:30:03.073Z,71.64
2018-06-17T03:35:03.667Z,71.36
2018-06-17T03:40:03.340Z,71.16
2018-06-17T03:45:02.973Z,70.3
2018-06-17T03:50:03.625Z,69.06
2018-06-17T03:55:03.178Z,68.68
2018-06-17T04:00:02.785Z,68.01
2018-06-17T04:05:03.448Z,67.43
2018-06-17T04:10:03.073Z,66.86
2018-06-17T04:15:03.660Z,66.28
2018-06-17T04:20:03.324Z,66.86
2018-06-17T04:25:02.963Z,67.34
2018-06-17T04:30:03.658Z,68.2
2018-06-17T04:35:03.214Z,68.68
2018-06-17T04:40:02.850Z,69.44
2018-06-17T04:45:03.412Z,70.34
2018-06-17T04:50:03.599Z,71.11
2018-06-17T04:55:03.188Z,71.97
2018-06-17T05:00:04.333Z,74.74
2018-06-17T05:05:03.004Z,74.11
2018-06-17T05:10:03.704Z,75.16
2018-06-17T05:15:03.328Z,75.16
2018-06-17T05:20:02.914Z,78.42
2018-06-17T05:25:03.496Z,76.94
2018-06-17T05:30:03.085Z,77.23
2018-06-17T05:35:03.679Z,76.6
2018-06-17T05:40:03.293Z,78.7
2018-06-17T05:45:02.842Z,78.22
2018-06-17T05:50:03.417Z,78.7
2018-06-17T05:55:03.008Z,78.22
2018-06-17T06:00:03.595Z,80.14
2018-06-17T06:05:03.186Z,79.28
2018-06-17T06:10:02.889Z,80.33
2018-06-17T06:15:03.456Z,82.73
2018-06-17T06:20:03.007Z,82.19
2018-06-17T06:25:03.656Z,83.82
2018-06-17T06:30:03.286Z,85.35
2018-06-17T06:35:02.894Z,86.45
2018-06-17T06:40:03.526Z,87.79
2018-06-17T06:45:03.096Z,84.39
2018-06-17T06:50:04.023Z,86.02
2018-06-17T06:55:03.745Z,84.97
2018-06-17T07:00:03.737Z,85.74
2018-06-17T07:05:03.375Z,87.08
2018-06-17T07:10:03.533Z,85.54
2018-06-17T07:15:03.165Z,87.79
2018-06-17T07:20:03.807Z,90.61
2018-06-17T07:25:03.758Z,93.59
2018-06-17T07:30:03.428Z,98.72
2018-06-17T07:35:03.063Z,99.99
2018-06-17T07:40:03.696Z,99.99
2018-06-17T07:45:03.258Z,99.99
2018-06-17T07:50:02.893Z,99.99
2018-06-17T07:55:03.477Z,99.99
2018-06-17T08:00:03.080Z,99.99
2018-06-17T08:05:03.716Z,99.99
2018-06-17T08:10:03.391Z,99.99
2018-06-17T08:15:02.914Z,99.99
2018-06-17T08:20:03.511Z,99.99
2018-06-17T08:25:03.138Z,99.99
2018-06-17T08:30:04.109Z,99.99
2018-06-17T08:35:03.732Z,99.99
2018-06-17T08:40:03.386Z,99.99
2018-06-17T08:45:03.076Z,99.99
2018-06-17T08:50:03.699Z,99.99
2018-06-17T08:55:03.350Z,99.99
2018-06-17T09:00:02.962Z,99.99
2018-06-17T09:05:03.570Z,99.99
2018-06-17T09:10:03.223Z,99.99
2018-06-17T09:15:02.935Z,99.99
2018-06-17T09:20:03.543Z,99.99
2018-06-17T09:25:03.118Z,99.99
2018-06-17T09:30:03.703Z,99.99
2018-06-17T09:35:03.252Z,99.99
2018-06-17T09:40:02.910Z,99.99
2018-06-17T09:45:03.502Z,99.99
2018-06-17T09:50:03.056Z,99.99
2018-06-17T09:55:03.652Z,99.99
2018-06-17T10:00:03.266Z,99.99
2018-06-17T10:05:02.858Z,99.99
2018-06-17T10:10:03.549Z,99.99
2018-06-17T10:15:03.147Z,99.99
2018-06-17T10:20:03.729Z,99.99
2018-06-17T10:25:03.323Z,99.99
2018-06-17T10:30:02.886Z,99.99
2018-06-17T10:35:03.505Z,99.99
2018-06-17T10:40:03.198Z,99.99
2018-06-17T10:45:03.777Z,99.99
2018-06-17T10:50:03.344Z,99.99
2018-06-17T10:55:02.924Z,99.99
2018-06-17T11:00:03.461Z,99.99
2018-06-17T11:05:03.073Z,99.99
2018-06-17T11:10:03.728Z,99.99
2018-06-17T11:15:03.333Z,99.99
2018-06-17T11:20:02.970Z,99.99
2018-06-17T11:25:03.544Z,99.99
2018-06-17T11:30:03.224Z,99.99
2018-06-17T11:35:02.772Z,99.99
2018-06-17T11:40:03.409Z,99.99
2018-06-17T11:45:02.989Z,99.99
2018-06-17T11:50:03.594Z,99.99
2018-06-17T11:55:03.200Z,99.99
2018-06-17T12:00:02.765Z,99.99
2018-06-17T12:05:03.361Z,99.99
2018-06-17T12:10:02.990Z,99.99
2018-06-17T12:15:03.598Z,99.99
2018-06-17T12:20:03.188Z,99.99
2018-06-17T12:25:02.794Z,99.99
2018-06-17T12:30:03.364Z,99.99
2018-06-17T12:35:02.960Z,99.99
2018-06-17T12:40:03.605Z,99.99
2018-06-17T12:45:03.200Z,99.99
2018-06-17T12:50:02.798Z,99.99
2018-06-17T12:55:03.398Z,99.99
2018-06-17T13:00:02.998Z,99.99
2018-06-17T13:05:03.664Z,99.99
2018-06-17T13:10:03.314Z,99.99
2018-06-17T13:15:02.885Z,99.99
2018-06-17T13:20:03.514Z,99.99
2018-06-17T13:25:03.106Z,99.99
2018-06-17T13:30:03.758Z,99.99
2018-06-17T13:35:03.370Z,99.99
2018-06-17T13:40:03.033Z,99.99
2018-06-17T13:45:03.599Z,99.99
2018-06-17T13:50:03.272Z,99.99
2018-06-17T13:55:02.871Z,99.99
2018-06-17T14:00:03.452Z,99.99
2018-06-17T14:05:03.021Z,99.99
2018-06-17T14:10:03.659Z,99.99
2018-06-17T14:15:03.216Z,99.99
2018-06-17T14:20:03.763Z,99.99
2018-06-17T14:25:03.358Z,99.99
2018-06-17T14:30:03.019Z,99.99
2018-06-17T14:35:03.654Z,99.99
2018-06-17T14:40:03.348Z,99.99
2018-06-17T14:45:02.902Z,99.99
2018-06-17T14:50:03.861Z,99.99
2018-06-17T14:55:03.548Z,99.99
2018-06-17T15:00:03.544Z,99.99
2018-06-17T15:05:03.153Z,99.99
2018-06-17T15:10:02.804Z,99.99
2018-06-17T15:15:03.623Z,99.99
2018-06-17T15:20:03.706Z,99.99
2018-06-17T15:25:03.382Z,99.99
2018-06-17T15:30:03.027Z,99.99
2018-06-17T15:35:03.609Z,99.99
2018-06-17T15:40:03.261Z,99.99
2018-06-17T15:45:02.892Z,99.99
2018-06-17T15:50:03.528Z,99.99
2018-06-17T15:55:03.317Z,99.99
2018-06-17T16:00:02.970Z,99.99
2018-06-17T16:05:03.669Z,99.99
2018-06-17T16:10:03.286Z,99.99
2018-06-17T16:15:02.883Z,99.99
2018-06-17T16:20:03.591Z,99.99
2018-06-17T16:25:03.205Z,99.99
2018-06-17T16:30:02.805Z,99.99
2018-06-17T16:35:03.440Z,99.99
2018-06-17T16:40:03.254Z,99.99
2018-06-17T16:45:02.928Z,99.99
2018-06-17T16:50:03.500Z,99.99
2018-06-17T16:55:03.116Z,99.99
2018-06-17T17:00:03.789Z,99.99
2018-06-17T17:05:03.556Z,99.99
2018-06-17T17:10:03.268Z,99.99
2018-06-17T17:15:02.949Z,99.99
2018-06-17T17:20:03.594Z,99.99
2018-06-17T17:25:03.132Z,99.99
2018-06-17T17:30:03.718Z,99.99
2018-06-17T17:35:03.360Z,99.99
2018-06-17T17:40:03.017Z,91.67
2018-06-17T17:45:03.670Z,92.44
2018-06-17T17:50:03.266Z,86.98
2018-06-17T17:55:02.841Z,84.78
2018-06-17T18:00:03.427Z,83.82
2018-06-17T18:05:03.024Z,81.57
2018-06-17T18:10:03.693Z,80.52
2018-06-17T18:15:03.331Z,79.66
2018-06-17T18:20:02.981Z,78.74
2018-06-17T18:25:03.615Z,79.37
2018-06-17T18:30:03.200Z,77.94
2018-06-17T18:35:02.783Z,77.08
2018-06-17T18:40:03.450Z,75.16
2018-06-17T18:45:03.087Z,75.07
2018-06-17T18:50:03.677Z,75.64
2018-06-17T18:55:03.240Z,75.35
2018-06-17T19:00:02.893Z,75.07
2018-06-17T19:05:03.555Z,75.54
2018-06-17T19:10:03.188Z,74.68
2018-06-17T19:15:02.796Z,74.58
2018-06-17T19:20:03.383Z,74.01
2018-06-17T19:25:02.936Z,73.44
2018-06-17T19:30:03.606Z,72.58
2018-06-17T19:35:03.187Z,73.34
2018-06-17T19:40:02.795Z,73.34
2018-06-17T19:45:03.406Z,73.88
2018-06-17T19:50:02.938Z,74.26
2018-06-17T19:55:03.529Z,75.41
2018-06-17T20:00:03.407Z,75.22
2018-06-17T20:05:03.010Z,75.41
2018-06-17T20:10:03.627Z,75.51
2018-06-17T20:15:03.326Z,74.65
2018-06-17T20:20:03.220Z,73.3
2018-06-17T20:25:02.847Z,72.16
2018-06-17T20:30:03.593Z,71.97
2018-06-17T20:35:03.187Z,71.77
2018-06-17T20:40:02.968Z,71.68
2018-06-17T20:45:03.534Z,70.15
2018-06-17T20:50:03.098Z,70.53
2018-06-17T20:55:03.708Z,70.05
2018-06-17T21:00:03.412Z,69.48
2018-06-17T21:05:03.029Z,69.48
2018-06-17T21:10:03.684Z,69.48
2018-06-17T21:15:03.280Z,68.23
2018-06-17T21:20:02.854Z,67.94
2018-06-17T21:25:03.447Z,65.45
2018-06-17T21:30:03.084Z,66.13
2018-06-17T21:35:03.719Z,65.26
2018-06-17T21:40:03.324Z,64.22
2018-06-17T21:45:02.968Z,63.93
2018-06-17T21:50:03.545Z,64.02
2018-06-17T21:55:03.088Z,63.93
2018-06-17T22:00:03.749Z,63.35
2018-06-17T22:05:03.390Z,62.87
2018-06-17T22:10:03.039Z,62.3
2018-06-17T22:15:03.676Z,62.01
2018-06-17T22:20:03.300Z,61.25
2018-06-17T22:25:02.932Z,61.05
2018-06-17T22:30:03.513Z,59.91
2018-06-17T22:35:03.091Z,59.14
2018-06-17T22:40:03.746Z,58.76
2018-06-17T22:45:03.328Z,57.61
2018-06-17T22:50:02.919Z,57.04
2018-06-17T22:55:03.466Z,56.84
2018-06-17T23:00:02.955Z,56.84
2018-06-17T23:05:03.713Z,55.98
2018-06-17T23:10:03.378Z,55.12
2018-06-17T23:15:03.124Z,54.64
2018-06-17T23:20:03.779Z,53.88
2018-06-17T23:25:03.394Z,52.63
2018-06-17T23:30:03.022Z,52.34
2018-06-17T23:35:03.605Z,51.58
2018-06-17T23:40:03.271Z,50.62
2018-06-17T23:45:02.850Z,50.02
2018-06-17T23:50:03.431Z,48.88
2018-06-17T23:55:03.037Z,48.02
